< < Back
Terminal Aerodrome Forecast


Current Version              Previous Versions:   1  2  3  4  5  6  7  8  9  

Terminal Aerodrome Forecast

862
FTUS42 KFFC 231700
TAFFTY
TAF
KFTY 231733Z 2318/2418 25005KT P6SM VCSH BKN030
     FM232000 25006KT P6SM VCSH BKN040
     FM240000 28004KT P6SM SCT040
     FM240800 23005KT P6SM SCT025
     FM241100 24005KT P6SM BKN025
     FM241500 27008G13KT 6SM -SHRA BKN030 PROB30 2416/2418 5SM TSRA
      BR BKN025CB=



Latest METAR

143
SAUS70 KWBC 240600 RRH
MTRFTY
METAR KFTY 240553Z 00000KT 10SM SCT065 24/22 A3000 RMK AO2 SLP147 60000
T02390217 10300 20239 58002


USA.gov is the U.S. government's official web portal to all federal, state and local government web resources and services.